Fry, Arizona
Current Conditions -  °F | °C
As of 8:55 PM on Tuesday 21 Oct 2014 (Local Time) from KFHU Reporting Station
Broken Clouds Broken Clouds  
Wind Chill: 17°   Ceiling: 24000
Heat Index: 17°   Visibility: 10mi
Dew Point:   Wind: 8mph
Humidity: 52%   Direction: 240°WSW
Pressure: 30.03"   Gusts: NA
Location:  31.5289°N, 110.258°W
Report Text: KFHU 220355Z 24007KT 10SM BKN240 17/07 A3003 RMK SLP123
Loading
Personal Weather Stations






























Interactive Weather Map
Tropical Storm Tracking
New forecast layout! Learn more

10-Day Weather Forecast

Advertisements
Track Severe Weather on mobile